Latest Weather Observations for Ballera

IDQ60801

Issued at 9:13 pm EST Saturday 9 May 2026 (issued every 10 minutes, with the page automatically refreshed every 10 minutes)

About weather observations | Map of weather stations | Latest weather observations for QLD | Other Formats
Station Details ID: 045009 Name: BALLERA GAS FIELD Lat: -27.40 Lon: 141.81 Height: 114.5 m
Data from the previous 72 hours. | See also: Recent months at Ballera
Date/Time
EST
Temp
°C
App
Temp
°C
Dew
Point
°C
Rel
Hum
%
Delta-T
°C
Wind Press
QNH
hPa
Press
MSL
hPa
Rain since
9am
mm
Dir  Spd
km/h
Gust
km/h
Spd
kts
Gust
kts
09/09:00pm 16.0 11.7 8.0 59 4.0 SSE 20 24 11 13 1024.7 1024.5 0.0
09/08:30pm 16.4 11.7 7.9 57 4.3 SSE 22 26 12 14 1024.5 1024.3 0.0
09/08:00pm 17.0 12.6 7.6 54 4.7 S 20 28 11 15 1024.0 1023.8 0.0
09/07:30pm 16.9 13.0 7.3 53 4.8 S 17 20 9 11 1023.8 1023.6 0.0
09/07:00pm 17.3 13.6 6.5 49 5.3 SSE 15 17 8 9 1023.7 1023.5 0.0
09/06:30pm 18.4 14.7 6.3 45 6.0 SSE 15 19 8 10 1023.4 1023.2 0.0
09/06:00pm 19.7 15.2 6.1 41 6.8 SSE 19 24 10 13 1023.1 1022.9 0.0
09/05:30pm 20.4 15.6 5.6 38 7.4 SSE 20 28 11 15 1023.1 1022.9 0.0
09/05:00pm 20.9 15.4 5.7 37 7.6 SE 24 32 13 17 1022.9 1022.7 0.0
09/04:30pm 21.3 16.1 5.6 36 7.9 SSE 22 30 12 16 1022.9 1022.7 0.0
09/04:00pm 21.6 16.4 5.5 35 8.0 SE 22 33 12 18 1022.7 1022.5 0.0
09/03:30pm 21.5 15.8 5.0 34 8.2 SSE 24 30 13 16 1022.9 1022.7 0.0
09/03:00pm 21.5 16.3 5.4 35 8.0 SE 22 32 12 17 1022.8 1022.6 0.0
09/02:30pm 21.5 15.9 5.4 35 8.0 SSE 24 33 13 18 1023.0 1022.8 0.0
09/02:00pm 21.2 16.4 5.6 36 7.8 SE 20 30 11 16 1023.4 1023.2 0.0
09/01:30pm 20.7 15.6 5.9 38 7.4 SE 22 28 12 15 1023.8 1023.6 0.0
09/01:00pm 20.9 16.4 6.1 38 7.4 ESE 19 30 10 16 1024.5 1024.3 0.0
09/12:30pm 20.2 15.7 6.9 42 6.8 ESE 20 30 11 16 1024.9 1024.7 0.0
09/12:00pm 18.9 14.5 7.4 47 5.8 ESE 20 28 11 15 1025.4 1025.2 0.0
09/11:30am 18.6 14.3 7.7 49 5.6 ESE 20 28 11 15 1026.0 1025.8 0.0
09/11:00am 18.0 12.5 7.7 51 5.2 ESE 26 33 14 18 1026.3 1026.1 0.0
09/10:30am 17.2 12.1 7.8 54 4.8 ESE 24 32 13 17 1026.7 1026.5 0.0
09/10:00am 16.4 10.9 7.6 56 4.4 ESE 26 30 14 16 1026.9 1026.7 0.0
09/09:30am 15.6 9.4 7.9 60 3.9 ESE 30 37 16 20 1026.8 1026.6 0.0
09/09:00am 14.7 8.8 7.7 63 3.5 ESE 28 35 15 19 1026.6 1026.4 0.0
09/08:30am 13.2 8.1 7.6 69 2.8 SE 24 30 13 16 1026.2 1026.0 0.0
09/08:00am 11.9 7.5 7.6 75 2.1 SE 20 24 11 13 1026.1 1025.9 0.0
09/07:30am 10.5 6.7 7.4 81 1.5 SE 17 20 9 11 1025.6 1025.4 0.0
09/07:00am 10.1 6.2 7.0 81 1.5 SE 17 20 9 11 1025.3 1025.1 0.0
09/06:30am 10.4 6.1 7.1 80 1.6 SE 19 22 10 12 1025.0 1024.8 0.0
09/06:00am 10.7 6.4 7.0 78 1.8 SE 19 22 10 12 1024.7 1024.5 0.0
09/05:30am 11.0 6.5 6.9 76 2.0 SE 20 24 11 13 1024.5 1024.3 0.0
09/05:00am 11.4 6.9 7.1 75 2.1 SE 20 24 11 13 1024.3 1024.1 0.0
09/04:30am 11.5 7.0 7.0 74 2.2 SE 20 28 11 15 1024.2 1024.0 0.0
09/04:00am 11.8 6.9 6.9 72 2.3 SE 22 26 12 14 1024.3 1024.1 0.0
09/03:30am 11.7 7.4 7.0 73 2.3 SE 19 22 10 12 1024.4 1024.2 0.0
09/03:00am 12.0 7.7 7.1 72 2.4 SE 19 22 10 12 1024.3 1024.1 0.0
09/02:30am 11.7 7.7 6.8 72 2.3 SSE 17 19 9 10 1024.6 1024.4 0.0
09/02:00am 12.0 8.0 6.7 70 2.5 SSE 17 19 9 10 1024.7 1024.5 0.0
09/01:30am 12.2 8.5 6.5 68 2.7 SSE 15 17 8 9 1024.8 1024.6 0.0
09/01:00am 12.7 9.0 6.3 65 3.0 SSE 15 19 8 10 1024.8 1024.6 0.0
09/12:30am 13.5 8.9 6.4 62 3.4 SSE 20 24 11 13 1024.8 1024.6 0.0
09/12:00am 13.7 8.6 6.1 60 3.6 SE 22 26 12 14 1025.1 1024.9 0.0
 
Date/Time
EST
Temp
°C
App
Temp
°C
Dew
Point
°C
Rel
Hum
%
Delta-T
°C
Wind Press
QNH
hPa
Press
MSL
hPa
Rain since
9am
mm
Dir  Spd
km/h
Gust
km/h
Spd
kts
Gust
kts
08/11:30pm 13.8 9.1 5.9 59 3.8 SSE 20 28 11 15 1025.2 1025.0 0.0
08/11:00pm 14.2 9.1 5.8 57 4.0 SSE 22 28 12 15 1025.3 1025.1 0.0
08/10:30pm 14.5 8.9 5.6 55 4.2 SSE 24 30 13 16 1025.4 1025.2 0.0
08/10:00pm 14.6 9.0 5.4 54 4.3 SSE 24 28 13 15 1025.6 1025.4 0.0
08/09:30pm 14.8 9.6 5.3 53 4.5 SSE 22 28 12 15 1025.6 1025.4 0.0
08/09:00pm 15.0 9.3 5.0 51 4.7 SSE 24 28 13 15 1025.7 1025.5 0.0
08/08:30pm 15.3 9.6 4.7 49 5.0 SSE 24 32 13 17 1025.7 1025.5 0.0
08/08:00pm 15.7 9.1 4.4 47 5.3 SSE 28 33 15 18 1025.5 1025.3 0.0
08/07:30pm 15.8 10.3 4.2 46 5.4 SSE 22 28 12 15 1025.2 1025.0 0.0
08/07:00pm 16.5 10.5 3.6 42 6.0 S 24 32 13 17 1024.9 1024.7 0.0
08/06:30pm 17.3 11.5 2.5 37 6.8 S 22 28 12 15 1024.6 1024.4 0.0
08/06:00pm 18.2 12.5 0.4 30 7.8 SSE 20 26 11 14 1024.5 1024.3 0.0
08/05:30pm 19.0 12.5 0.1 28 8.3 SE 24 30 13 16 1024.2 1024.0 0.0
08/05:00pm 19.5 12.1 -0.5 26 8.7 SSE 28 35 15 19 1024.1 1023.9 0.0
08/04:30pm 19.8 12.8 -0.8 25 9.0 SE 26 33 14 18 1024.1 1023.9 0.0
08/04:00pm 19.6 12.9 -0.9 25 8.9 SE 24 33 13 18 1024.2 1024.0 0.0
08/03:30pm 19.6 12.2 -0.9 25 8.9 SE 28 35 15 19 1024.2 1024.0 0.0
08/03:00pm 19.7 11.2 -2.0 23 9.2 SE 33 43 18 23 1024.4 1024.2 0.0
08/02:30pm 19.4 11.1 -1.7 24 9.0 SE 32 41 17 22 1024.7 1024.5 0.0
08/02:00pm 19.2 11.3 -1.3 25 8.8 SE 30 39 16 21 1025.1 1024.9 0.0
08/01:30pm 19.2 11.7 -1.3 25 8.8 SE 28 39 15 21 1025.5 1025.3 0.0
08/01:00pm 18.4 10.5 -1.4 26 8.4 SE 30 41 16 22 1025.9 1025.7 0.0
08/12:30pm 18.5 10.7 -0.8 27 8.3 ESE 30 39 16 21 1026.3 1026.1 0.0
08/12:00pm 17.9 9.8 -0.4 29 7.9 ESE 32 41 17 22 1026.9 1026.7 0.0
08/11:30am 16.4 8.2 -1.2 30 7.4 ESE 32 44 17 24 1027.6 1027.4 0.0
08/11:00am 15.9 7.7 -1.2 31 7.1 ESE 32 41 17 22 1027.9 1027.7 0.0
08/10:30am 14.7 6.9 -1.0 34 6.5 ESE 30 41 16 22 1028.1 1027.9 0.0
08/10:00am 13.2 4.9 -1.9 35 6.0 ESE 32 39 17 21 1028.2 1028.0 0.0
08/09:30am 12.9 5.3 -1.8 36 5.9 ESE 28 35 15 19 1028.2 1028.0 0.0
08/09:00am 12.1 4.9 -1.8 38 5.5 ESE 26 33 14 18 1027.9 1027.7 0.0
08/08:30am 11.3 4.5 -1.5 41 5.1 ESE 24 30 13 16 1027.8 1027.6 0.0
08/08:00am 9.8 3.9 -0.7 48 4.1 ESE 20 24 11 13 1027.4 1027.2 0.0
08/07:30am 8.1 2.8 -0.4 55 3.3 ESE 17 19 9 10 1027.2 1027.0 0.0
08/07:00am 7.5 1.8 -0.7 56 3.1 ESE 19 20 10 11 1026.8 1026.6 0.0
08/06:30am 8.1 1.8 -1.1 52 3.6 SE 22 28 12 15 1026.6 1026.4 0.0
08/06:00am 8.6 2.3 -1.2 50 3.8 SE 22 26 12 14 1026.3 1026.1 0.0
08/05:30am 8.9 2.6 -1.2 49 3.9 SE 22 28 12 15 1026.1 1025.9 0.0
08/05:00am 9.3 2.6 -1.4 47 4.1 SE 24 30 13 16 1026.1 1025.9 0.0
08/04:30am 9.4 3.0 -1.6 46 4.3 SE 22 28 12 15 1026.0 1025.8 0.0
08/04:00am 9.5 3.1 -1.5 46 4.2 SE 22 28 12 15 1025.8 1025.6 0.0
08/03:30am 9.4 4.0 -1.3 47 4.2 SE 17 20 9 11 1026.1 1025.9 0.0
08/03:00am 10.1 4.1 -1.6 44 4.5 SE 20 26 11 14 1026.0 1025.8 0.0
08/02:30am 10.6 3.8 -2.1 41 4.9 SE 24 30 13 16 1026.1 1025.9 0.0
08/02:00am 11.0 4.2 -2.1 40 5.1 SE 24 32 13 17 1026.0 1025.8 0.0
08/01:30am 11.3 4.5 -2.1 39 5.2 SE 24 32 13 17 1026.1 1025.9 0.0
08/01:00am 11.4 4.6 -1.7 40 5.1 SE 24 28 13 15 1026.2 1026.0 0.0
08/12:30am 11.7 5.4 -0.8 42 5.0 SE 22 28 12 15 1026.1 1025.9 0.0
08/12:00am 11.9 5.3 -0.3 43 5.0 SSE 24 30 13 16 1026.3 1026.1 0.0
 
Date/Time
EST
Temp
°C
App
Temp
°C
Dew
Point
°C
Rel
Hum
%
Delta-T
°C
Wind Press
QNH
hPa
Press
MSL
hPa
Rain since
9am
mm
Dir  Spd
km/h
Gust
km/h
Spd
kts
Gust
kts
07/11:30pm 12.5 5.2 0.0 42 5.2 SSE 28 35 15 19 1026.4 1026.2 0.0
07/11:00pm 12.9 6.7 -0.4 40 5.4 SSE 22 32 12 17 1026.5 1026.3 0.0
07/10:30pm 13.3 6.4 0.3 41 5.5 SSE 26 32 14 17 1026.5 1026.3 0.0
07/10:00pm 13.6 6.4 0.6 41 5.5 SSE 28 35 15 19 1026.4 1026.2 0.0
07/09:30pm 13.7 6.5 1.0 42 5.4 SSE 28 37 15 20 1026.2 1026.0 0.0
07/09:00pm 14.0 6.9 1.3 42 5.5 SSE 28 33 15 18 1026.0 1025.8 0.0
07/08:30pm 14.5 6.7 1.4 41 5.7 SSE 32 37 17 20 1025.7 1025.5 0.0
07/08:00pm 15.0 7.5 1.5 40 5.9 SSE 30 41 16 22 1025.4 1025.2 0.0
07/07:30pm 15.5 8.2 2.3 41 5.9 SSE 30 37 16 20 1025.0 1024.8 0.0
07/07:00pm 16.2 9.3 4.6 46 5.5 SSE 30 39 16 21 1024.7 1024.5 0.0
07/06:30pm 17.0 9.9 5.3 46 5.6 SSE 32 41 17 22 1024.1 1023.9 0.0
07/06:00pm 17.7 10.9 5.3 44 6.0 SSE 30 35 16 19 1023.6 1023.4 0.0
07/05:30pm 18.6 11.5 5.5 42 6.4 SSE 32 41 17 22 1023.2 1023.0 0.0
07/05:00pm 19.4 12.1 5.5 40 6.8 SSE 33 43 18 23 1022.8 1022.6 0.0
07/04:30pm 20.0 12.7 5.6 39 7.1 SSE 33 44 18 24 1022.6 1022.4 0.0
07/04:00pm 20.5 13.0 6.5 40 7.1 SSE 35 43 19 23 1022.5 1022.3 0.0
07/03:30pm 21.6 15.1 6.3 37 7.8 SSE 30 39 16 21 1022.6 1022.4 0.0
07/03:00pm 20.7 13.8 6.6 40 7.1 SSE 32 41 17 22 1022.7 1022.5 0.0
07/02:30pm 21.0 13.9 6.5 39 7.4 SSE 33 43 18 23 1022.9 1022.7 0.0
07/02:00pm 20.9 14.1 6.8 40 7.2 SE 32 44 17 24 1022.9 1022.7 0.0
07/01:30pm 20.6 13.0 5.8 38 7.4 SE 35 48 19 26 1023.2 1023.0 0.0
07/01:00pm 21.6 14.6 5.9 36 7.9 SE 32 43 17 23 1023.4 1023.2 0.0
07/12:30pm 20.9 13.6 5.3 36 7.7 SE 33 43 18 23 1023.8 1023.6 0.0
07/12:09pm 20.9 14.2 5.7 37 7.6 SE 30 48 16 26 1024.0 1023.8 0.0
07/12:00pm 20.0 13.9 6.4 41 6.8 SE 28 37 15 20 1024.2 1024.0 0.0
07/11:30am 19.1 13.0 6.6 44 6.3 SE 28 37 15 20 1024.6 1024.4 0.0
07/11:00am 19.2 12.4 6.7 44 6.3 SSE 32 43 17 23 1024.9 1024.7 0.0
07/10:30am 18.6 13.1 7.4 48 5.7 SSE 26 35 14 19 1025.0 1024.8 0.0
07/10:00am 18.4 13.1 6.9 47 5.8 SE 24 30 13 16 1024.8 1024.6 0.0
07/09:30am 17.3 13.1 7.6 53 4.9 SE 19 24 10 13 1024.6 1024.4 0.0
07/09:00am 15.6 11.6 8.1 61 3.8 SE 19 22 10 12 1024.5 1024.3 0.0
07/08:30am 14.5 10.5 8.2 66 3.2 SSE 19 22 10 12 1024.1 1023.9 0.0
07/08:00am 13.1 9.9 8.6 74 2.3 S 15 19 8 10 1023.7 1023.5 0.0
07/07:30am 11.8 8.6 8.3 79 1.7 S 15 19 8 10 1023.1 1022.9 0.0
07/07:00am 11.2 7.8 7.7 79 1.7 SSE 15 17 8 9 1022.8 1022.6 0.0
07/06:30am 11.0 8.0 7.5 79 1.7 SSE 13 15 7 8 1022.3 1022.0 0.0
07/06:00am 11.3 7.6 7.8 79 1.7 SSE 17 17 9 9 1022.3 1022.0 0.0
07/05:30am 11.6 8.2 7.7 77 1.9 SSE 15 17 8 9 1022.1 1021.8 0.0
07/05:00am 12.0 8.6 7.7 75 2.1 SSE 15 17 8 9 1022.1 1021.8 0.0
07/04:30am 12.3 8.9 7.6 73 2.3 SSE 15 17 8 9 1021.8 1021.5 0.0
07/04:00am 12.8 9.4 7.7 71 2.5 SSE 15 17 8 9 1021.6 1021.3 0.0
07/03:30am 13.4 9.6 7.4 67 2.9 SSE 17 20 9 11 1021.3 1021.0 0.0
07/03:00am 13.6 9.7 7.2 65 3.1 SSE 17 20 9 11 1021.5 1021.2 0.0
07/02:30am 13.8 10.3 7.1 64 3.3 SSE 15 20 8 11 1021.7 1021.4 0.0
07/02:00am 14.3 10.0 6.9 61 3.6 SSE 19 22 10 12 1021.8 1021.5 0.0
07/01:30am 14.7 10.2 7.0 60 3.8 SSE 20 26 11 14 1021.6 1021.3 0.0
07/01:00am 14.6 10.3 6.9 60 3.8 S 19 22 10 12 1021.6 1021.3 0.0
07/12:30am 14.8 10.9 7.1 60 3.8 SSE 17 20 9 11 1021.8 1021.5 0.0
07/12:00am 14.6 10.7 7.2 61 3.6 S 17 20 9 11 1021.9 1021.6 0.0
 
Date/Time
EST
Temp
°C
App
Temp
°C
Dew
Point
°C
Rel
Hum
%
Delta-T
°C
Wind Press
QNH
hPa
Press
MSL
hPa
Rain since
9am
mm
Dir  Spd
km/h
Gust
km/h
Spd
kts
Gust
kts
06/11:30pm 14.7 11.2 7.0 60 3.8 S 15 20 8 11 1022.0 1021.7 0.0
06/11:00pm 15.1 11.5 6.9 58 4.0 S 15 19 8 10 1022.1 1021.8 0.0
06/10:30pm 16.0 11.4 6.7 54 4.6 S 20 24 11 13 1022.1 1021.8 0.0
06/10:00pm 16.9 11.4 6.1 49 5.3 S 24 32 13 17 1022.1 1021.8 0.0
06/09:30pm 17.0 11.9 6.2 49 5.3 S 22 26 12 14 1021.9 1021.6 0.0

Other formats

Comma delimited format used in spreadsheet applications
http://www.bom.gov.au/fwo/IDQ60801/IDQ60801.95487.axf

JavaScript Object Notation format (JSON) in row-major order
http://www.bom.gov.au/fwo/IDQ60801/IDQ60801.95487.json

Data quality

Most of these data are generated automatically and are frequently updated. Quality checks on data are not normally performed. It is possible for incorrect values to appear. Refer to information at About Latest Weather Observations and please check the disclaimer before using these data.